Terminal Aerodrome Forecast
Issued by NWS Twin Cities, MN

Home | Current Version | Previous Version | Text Only | Print | Product List | Glossary On
Versions: 1 2 3 4 5 6 7 8 9 10 11 12 13 14 15 16 17 18 19 20 21 22 23 24 25 26 27
032
FTUS43 KMPX 261811 AAA
TAFMSP
TAF AMD
KMSP 261811Z 2618/2724 28013G21KT P6SM BKN035
     FM261930 27011G18KT P6SM FEW030 SCT250
     FM262200 27009KT P6SM SCT250
     FM270400 15005KT P6SM BKN100
     FM271500 17006KT P6SM SCT100 BKN250=

USA.gov is the U.S. government's official web portal to all federal, state and local government web resources and services.